Impacts TAF Board
For situational awareness. Not to be used for flight planning purposes.
IDs:

KGJT - Grand Junction Rgnl, CO, US

Issued at 2341 UTC 05 Dec 2019
Updated at 0113 UTC 06 Dec 2019
Potential Impact None Slight Moderate High
Time<<06/14Z 06/15Z 06/16Z 06/17Z 06/18Z 06/19Z 06/20Z 06/21Z 06/22Z 06/23Z 07/00Z 07/01Z 07/02Z>>
Type PRVL PRVL PRVL PRVL PRVL PRVL PRVL PRVL PRVL PRVL
VIS >6 >6 >6 >6 >6 >6 >6 >6 >6 >6
CIG -- -- -- -- -- -- -- -- -- --
Cover SCT SCT SCT SCT SCT SCT SCT SCT SCT SCT
FltCat VFR VFR VFR VFR VFR VFR VFR VFR VFR VFR
WX -- -- -- -- -- -- -- -- -- --
WDir 120 120 120 120 120 120 120 120 120 120
WSpd 4 4 4 4 4 4 4 4 4 4
WGst -- -- -- -- -- -- -- -- -- --
Raw TAF
KGJT 052341Z 0600/0624 05003KT P6SM FEW025 SCT060
  FM060800 12004KT P6SM SCT070


METAR Board
Radar Display
Forecast Discussion
For situational awareness. Not to be used for flight planning purposes.